Time;durP1;ratioP1;P1;durP2;ratioP2;P2;SDS_P1;SDS_P2;PMS_P1;PMS_P2;Temp;Humidity;BMP_temperature;BMP_pressure;BME280_temperature;BME280_humidity;BME280_pressure;Samples;Min_cycle;Max_cycle;Signal;HPM_P1;HPM_P2
2023/09/14 00:01:43;;;;;;;0.68;0.68;;;19.70;76.10;;;;;;6077723;23;20226;-82
2023/09/14 00:04:09;;;;;;;0.95;0.80;;;19.70;76.10;;;;;;6151417;22;20220;-80
2023/09/14 00:06:35;;;;;;;0.82;0.77;;;19.70;76.10;;;;;;6125476;23;20547;-81
2023/09/14 00:09:00;;;;;;;0.75;0.63;;;19.80;76.20;;;;;;6150543;22;20144;-84
2023/09/14 00:11:26;;;;;;;0.65;0.65;;;19.80;76.30;;;;;;6125829;23;20563;-82
2023/09/14 00:13:52;;;;;;;1.05;0.80;;;19.70;76.10;;;;;;6151598;22;20230;-81
2023/09/14 00:16:18;;;;;;;0.85;0.85;;;19.80;76.10;;;;;;6125757;23;20135;-83
2023/09/14 00:18:43;;;;;;;0.90;0.75;;;19.80;76.20;;;;;;6125460;23;20131;-81
2023/09/14 00:21:09;;;;;;;0.80;0.75;;;19.70;76.10;;;;;;6100963;23;20567;-83
2023/09/14 00:23:35;;;;;;;0.85;0.80;;;19.70;76.30;;;;;;6120296;22;20665;-82
2023/09/14 00:26:01;;;;;;;0.75;0.75;;;19.70;76.30;;;;;;6120471;23;20175;-83
2023/09/14 00:28:27;;;;;;;0.85;0.85;;;19.70;76.30;;;;;;6120550;23;20136;-81
2023/09/14 00:30:53;;;;;;;1.02;0.82;;;19.70;76.20;;;;;;6120470;23;20178;-82
2023/09/14 00:33:19;;;;;;;1.98;0.88;;;19.70;76.30;;;;;;6120440;23;20144;-82
2023/09/14 00:35:46;;;;;;;0.90;0.80;;;19.70;76.40;;;;;;6121907;23;20133;-83
2023/09/14 00:38:12;;;;;;;0.70;0.70;;;19.70;76.40;;;;;;6122116;23;20246;-81
2023/09/14 00:40:38;;;;;;;1.70;1.00;;;19.70;76.40;;;;;;6120482;23;20136;-81
2023/09/14 00:43:04;;;;;;;1.00;0.90;;;19.80;76.50;;;;;;6095929;23;20183;-83
2023/09/14 00:45:30;;;;;;;0.75;0.65;;;19.70;76.40;;;;;;6121677;23;20144;-83
2023/09/14 00:47:57;;;;;;;1.27;0.80;;;19.70;76.50;;;;;;6120404;23;20207;-82
2023/09/14 00:50:23;;;;;;;0.68;0.68;;;19.70;76.70;;;;;;6120317;23;20163;-80
2023/09/14 00:52:55;;;;;;;2.13;0.90;;;19.70;76.70;;;;;;6120588;23;20144;-83
2023/09/14 00:55:22;;;;;;;0.60;0.60;;;19.70;76.70;;;;;;6073186;23;20171;-83
2023/09/14 00:57:49;;;;;;;1.17;0.90;;;19.70;76.70;;;;;;6120354;23;20140;-82
2023/09/14 01:00:16;;;;;;;0.80;0.77;;;19.70;76.70;;;;;;6090057;23;20207;-83
2023/09/14 01:02:42;;;;;;;0.65;0.65;;;19.70;76.80;;;;;;6066247;23;20207;-81
2023/09/14 01:05:07;;;;;;;1.63;0.85;;;19.70;76.60;;;;;;6167602;23;20149;-83
2023/09/14 01:07:34;;;;;;;0.80;0.80;;;19.70;76.60;;;;;;6065205;23;20145;-81
2023/09/14 01:10:00;;;;;;;1.00;0.90;;;19.70;76.70;;;;;;6089851;23;20243;-80
2023/09/14 01:12:26;;;;;;;1.33;0.82;;;19.70;76.60;;;;;;6066028;23;20142;-81
2023/09/14 01:14:59;;;;;;;0.80;0.60;;;19.70;76.70;;;;;;6142797;23;20171;-82
2023/09/14 01:17:32;;;;;;;0.70;0.70;;;19.70;76.80;;;;;;6065988;23;20149;-83
2023/09/14 01:20:07;;;;;;;0.80;0.80;;;19.70;76.80;;;;;;6066072;23;20195;-83
2023/09/14 01:22:42;;;;;;;0.70;0.70;;;19.60;76.80;;;;;;6089576;23;20673;-83
2023/09/14 01:25:19;;;;;;;0.70;0.70;;;19.60;76.70;;;;;;6167499;23;20164;-84
2023/09/14 01:27:45;;;;;;;1.10;1.00;;;19.60;76.70;;;;;;6066005;23;20148;-83
2023/09/14 01:30:11;;;;;;;0.90;0.70;;;19.70;76.80;;;;;;6065601;23;20144;-83
2023/09/14 01:32:36;;;;;;;0.93;0.77;;;19.70;76.70;;;;;;6115211;23;20133;-82
2023/09/14 01:35:04;;;;;;;0.70;0.70;;;19.70;76.80;;;;;;6090967;23;20207;-84
2023/09/14 01:37:30;;;;;;;1.00;0.90;;;19.70;76.90;;;;;;6090964;23;20137;-81
2023/09/14 01:39:56;;;;;;;1.02;0.93;;;19.70;76.80;;;;;;6092494;23;20137;-83
2023/09/14 01:42:21;;;;;;;1.00;0.80;;;19.70;76.80;;;;;;6090882;23;20480;-81
2023/09/14 01:44:48;;;;;;;1.65;0.90;;;19.70;76.90;;;;;;6090599;23;20181;-84
2023/09/14 01:47:13;;;;;;;1.02;0.82;;;19.70;76.90;;;;;;6115345;23;20141;-84
2023/09/14 01:49:39;;;;;;;1.88;1.17;;;19.70;76.90;;;;;;6092338;23;20137;-82
2023/09/14 01:52:05;;;;;;;0.80;0.73;;;19.70;76.90;;;;;;6091141;23;20472;-82
2023/09/14 01:54:31;;;;;;;1.00;0.80;;;19.60;76.90;;;;;;6092352;23;20164;-82
2023/09/14 01:56:57;;;;;;;0.80;0.80;;;19.60;76.80;;;;;;6091025;23;20156;-83
2023/09/14 01:59:22;;;;;;;0.80;0.63;;;19.60;76.80;;;;;;6092258;23;20141;-82
2023/09/14 02:01:48;;;;;;;1.00;0.90;;;19.70;76.90;;;;;;6090777;23;20156;-82
2023/09/14 02:04:14;;;;;;;1.13;0.80;;;19.70;77.00;;;;;;6090607;23;20212;-84
2023/09/14 02:06:39;;;;;;;0.80;0.70;;;19.60;77.00;;;;;;6115158;23;20504;-82
2023/09/14 02:09:05;;;;;;;0.80;0.80;;;19.70;77.00;;;;;;6089673;23;20152;-82
2023/09/14 02:11:31;;;;;;;0.88;0.80;;;19.60;77.00;;;;;;6114994;23;20208;-83
2023/09/14 02:13:57;;;;;;;0.95;0.82;;;19.60;77.00;;;;;;6092542;23;20215;-84
2023/09/14 02:16:23;;;;;;;0.85;0.80;;;19.70;77.00;;;;;;6092145;23;20134;-82
2023/09/14 02:18:49;;;;;;;1.58;0.80;;;19.60;77.00;;;;;;6090766;23;20153;-81
2023/09/14 02:21:16;;;;;;;0.73;0.73;;;19.60;76.90;;;;;;6090429;23;20526;-82
2023/09/14 02:23:42;;;;;;;2.20;0.88;;;19.60;77.00;;;;;;6095275;23;20278;-84
2023/09/14 02:26:08;;;;;;;0.80;0.80;;;19.60;77.00;;;;;;6121198;23;20156;-83
2023/09/14 02:28:33;;;;;;;0.80;0.77;;;19.60;77.10;;;;;;6119693;23;20162;-81
2023/09/14 02:30:59;;;;;;;0.98;0.85;;;19.60;77.00;;;;;;6095357;23;20163;-83
2023/09/14 02:33:25;;;;;;;1.30;0.77;;;19.60;77.10;;;;;;6121091;23;20141;-82
2023/09/14 02:35:51;;;;;;;1.70;0.88;;;19.60;77.00;;;;;;6119657;23;20143;-81
2023/09/14 02:38:17;;;;;;;0.77;0.63;;;19.60;77.00;;;;;;6095532;23;20525;-82
2023/09/14 02:40:44;;;;;;;1.95;0.82;;;19.60;77.20;;;;;;6095568;23;20171;-84
2023/09/14 02:43:09;;;;;;;0.73;0.65;;;19.60;77.00;;;;;;6122091;23;20172;-83
2023/09/14 02:45:35;;;;;;;1.13;0.82;;;19.60;77.00;;;;;;6121308;23;20140;-82
2023/09/14 02:48:01;;;;;;;0.95;0.85;;;19.60;77.00;;;;;;6121064;23;20223;-84
2023/09/14 02:50:27;;;;;;;0.80;0.80;;;19.60;77.00;;;;;;6122349;23;20182;-82
2023/09/14 02:52:52;;;;;;;1.10;0.82;;;19.60;77.10;;;;;;6121049;23;20148;-81
2023/09/14 02:55:19;;;;;;;0.95;0.90;;;19.60;77.00;;;;;;6120884;23;20132;-81
2023/09/14 02:57:44;;;;;;;0.98;0.77;;;19.60;77.20;;;;;;6120845;23;20140;-82
2023/09/14 03:00:16;;;;;;;0.80;0.80;;;19.60;77.20;;;;;;6122383;23;20141;-82
2023/09/14 03:02:43;;;;;;;0.88;0.70;;;19.60;77.20;;;;;;6097388;23;20160;-84
2023/09/14 03:05:09;;;;;;;1.05;0.75;;;19.60;77.20;;;;;;6120930;23;20638;-84
2023/09/14 03:07:36;;;;;;;1.23;0.70;;;19.60;77.20;;;;;;6121591;23;20855;-82
2023/09/14 03:10:03;;;;;;;0.90;0.77;;;19.60;78.10;;;;;;6096499;23;20151;-82
2023/09/14 03:12:29;;;;;;;0.68;0.68;;;19.60;77.10;;;;;;6121011;23;20128;-83
2023/09/14 03:14:54;;;;;;;0.85;0.70;;;19.60;77.20;;;;;;6120831;23;20174;-82
2023/09/14 03:17:20;;;;;;;0.85;0.60;;;19.60;77.20;;;;;;6120886;23;20611;-83
2023/09/14 03:19:48;;;;;;;1.13;0.90;;;19.60;77.30;;;;;;6120916;23;20133;-81
2023/09/14 03:22:14;;;;;;;1.17;0.90;;;19.60;77.30;;;;;;6096441;22;20125;-81
2023/09/14 03:24:40;;;;;;;0.90;0.75;;;19.60;77.20;;;;;;6125542;23;20180;-83
2023/09/14 03:27:06;;;;;;;0.68;0.68;;;19.60;77.30;;;;;;6125621;23;20178;-83
2023/09/14 03:29:32;;;;;;;0.80;0.80;;;19.60;77.30;;;;;;6151756;22;20216;-81
2023/09/14 03:31:58;;;;;;;1.00;0.90;;;19.60;77.30;;;;;;6151766;22;20132;-80
2023/09/14 03:34:24;;;;;;;1.10;0.80;;;19.60;77.30;;;;;;6151515;22;20182;-83
2023/09/14 03:36:50;;;;;;;3.15;0.90;;;19.60;77.30;;;;;;6151763;22;20579;-83
2023/09/14 03:39:15;;;;;;;0.60;0.60;;;19.60;77.30;;;;;;6125818;23;20159;-83
2023/09/14 03:41:41;;;;;;;0.75;0.75;;;19.60;77.40;;;;;;6101556;23;20148;-81
2023/09/14 03:44:07;;;;;;;0.85;0.65;;;19.60;77.40;;;;;;6152014;22;20164;-81
2023/09/14 03:46:33;;;;;;;1.13;0.88;;;19.60;77.30;;;;;;6125378;23;20220;-81
2023/09/14 03:48:59;;;;;;;0.98;0.88;;;19.60;77.30;;;;;;6125677;23;20209;-83
2023/09/14 03:51:25;;;;;;;1.02;0.70;;;19.60;77.30;;;;;;6152000;22;20128;-83
2023/09/14 03:53:51;;;;;;;1.25;0.73;;;19.60;77.30;;;;;;6125460;23;20140;-83
2023/09/14 03:56:17;;;;;;;1.17;0.90;;;19.70;77.40;;;;;;6101364;23;20148;-82
2023/09/14 03:58:43;;;;;;;0.88;0.80;;;19.60;77.30;;;;;;6125481;23;20147;-82
2023/09/14 04:01:09;;;;;;;0.80;0.80;;;19.60;77.40;;;;;;6151657;22;20467;-84
2023/09/14 04:03:34;;;;;;;1.25;0.85;;;19.60;77.40;;;;;;6151667;22;20164;-81
2023/09/14 04:06:00;;;;;;;1.38;0.60;;;19.60;77.30;;;;;;6152048;22;20146;-82
2023/09/14 04:08:26;;;;;;;1.02;0.60;;;19.60;77.30;;;;;;6125124;23;20155;-82
2023/09/14 04:10:52;;;;;;;0.90;0.85;;;19.60;77.30;;;;;;6101155;23;20151;-82
2023/09/14 04:13:34;;;;;;;0.60;0.60;;;19.60;77.40;;;;;;6151509;22;20135;-82
2023/09/14 04:16:01;;;;;;;0.90;0.90;;;19.60;77.40;;;;;;6151453;22;20185;-83
2023/09/14 04:18:27;;;;;;;0.60;0.60;;;19.60;77.50;;;;;;6151630;23;20157;-82
2023/09/14 04:20:53;;;;;;;1.15;0.80;;;19.60;77.50;;;;;;6100754;23;20139;-82
2023/09/14 04:23:19;;;;;;;0.93;0.88;;;19.60;77.40;;;;;;6100987;23;20191;-84
2023/09/14 04:25:46;;;;;;;0.60;0.60;;;19.60;77.30;;;;;;6151636;23;20208;-83
2023/09/14 04:28:13;;;;;;;0.95;0.70;;;19.60;77.40;;;;;;6101188;23;20589;-81
2023/09/14 04:30:43;;;;;;;0.80;0.77;;;19.60;77.40;;;;;;6125402;23;20278;-81
2023/09/14 04:33:11;;;;;;;1.08;0.80;;;19.60;77.60;;;;;;6101026;23;20179;-83
2023/09/14 04:35:37;;;;;;;2.60;1.10;;;19.60;77.40;;;;;;6151553;22;20140;-83
2023/09/14 04:38:03;;;;;;;1.13;0.90;;;19.60;77.40;;;;;;6101064;23;20513;-80
2023/09/14 04:40:28;;;;;;;0.88;0.88;;;19.60;77.40;;;;;;6101170;23;20157;-81
2023/09/14 04:42:54;;;;;;;1.50;0.90;;;19.50;77.30;;;;;;6101155;23;20231;-80
2023/09/14 04:45:20;;;;;;;1.05;0.80;;;19.60;77.50;;;;;;6101027;23;20136;-82
2023/09/14 04:47:46;;;;;;;0.98;0.73;;;19.60;77.50;;;;;;6101161;23;20878;-83
2023/09/14 04:50:11;;;;;;;0.60;0.60;;;19.60;77.40;;;;;;6101163;23;20190;-83
2023/09/14 04:52:37;;;;;;;2.10;0.70;;;19.60;77.60;;;;;;6151332;22;20155;-81
2023/09/14 04:55:04;;;;;;;1.10;0.70;;;19.50;77.40;;;;;;6125394;23;20147;-82
2023/09/14 04:57:30;;;;;;;0.90;0.80;;;19.60;77.60;;;;;;6125351;23;20169;-83
2023/09/14 04:59:55;;;;;;;0.60;0.60;;;19.60;77.60;;;;;;6125642;23;20178;-81
2023/09/14 05:02:21;;;;;;;1.23;0.82;;;19.50;77.50;;;;;;6101130;23;20155;-80
2023/09/14 05:04:47;;;;;;;0.75;0.55;;;19.50;77.50;;;;;;6150688;22;20616;-80
2023/09/14 05:07:12;;;;;;;0.80;0.75;;;19.60;77.60;;;;;;6125123;23;20142;-82
2023/09/14 05:09:38;;;;;;;0.75;0.75;;;19.50;77.60;;;;;;6124767;23;20158;-82
2023/09/14 05:12:04;;;;;;;1.17;0.70;;;19.50;77.50;;;;;;6125554;23;20586;-80
2023/09/14 05:14:30;;;;;;;1.05;0.80;;;19.50;77.40;;;;;;6125537;23;20471;-82
2023/09/14 05:16:56;;;;;;;0.60;0.60;;;19.60;77.40;;;;;;6151852;23;20139;-81
2023/09/14 05:19:22;;;;;;;0.60;0.60;;;19.60;77.50;;;;;;6125681;23;20646;-80
2023/09/14 05:21:48;;;;;;;0.95;0.63;;;19.60;77.40;;;;;;6151352;22;20265;-81
2023/09/14 05:24:14;;;;;;;1.00;0.90;;;19.60;77.40;;;;;;6151170;22;20191;-82
2023/09/14 05:26:40;;;;;;;0.80;0.70;;;19.50;77.30;;;;;;6125597;23;20143;-82
2023/09/14 05:29:05;;;;;;;1.30;0.90;;;19.60;77.40;;;;;;6152342;22;20136;-82
2023/09/14 05:31:31;;;;;;;1.48;0.88;;;19.60;77.30;;;;;;6152107;22;20188;-82
2023/09/14 05:33:57;;;;;;;1.02;0.80;;;19.60;77.30;;;;;;6126258;23;20540;-81
2023/09/14 05:36:22;;;;;;;1.00;0.70;;;19.60;77.00;;;;;;6159648;22;20144;-82
2023/09/14 05:38:48;;;;;;;0.52;0.52;;;19.50;76.80;;;;;;6159432;22;20147;-81
2023/09/14 05:41:14;;;;;;;1.27;0.70;;;19.60;75.80;;;;;;6133365;23;20163;-81
2023/09/14 05:43:40;;;;;;;0.77;0.70;;;19.60;75.10;;;;;;6133074;23;20179;-82
2023/09/14 05:46:06;;;;;;;0.40;0.40;;;19.70;74.50;;;;;;6154133;22;20132;-80
2023/09/14 05:48:33;;;;;;;0.70;0.70;;;19.60;74.10;;;;;;6125300;23;20143;-82
2023/09/14 05:50:59;;;;;;;1.05;0.63;;;19.60;73.70;;;;;;6077381;23;20152;-81
2023/09/14 05:53:25;;;;;;;0.90;0.65;;;19.60;73.60;;;;;;6100647;23;20666;-82
2023/09/14 05:55:53;;;;;;;0.50;0.50;;;19.50;73.30;;;;;;6125143;23;20498;-82
2023/09/14 05:58:20;;;;;;;1.15;0.80;;;19.50;72.90;;;;;;6151096;23;20469;-82
2023/09/14 06:00:46;;;;;;;1.60;0.70;;;19.40;72.90;;;;;;6176432;23;20204;-82
2023/09/14 06:03:13;;;;;;;1.08;0.60;;;19.30;73.20;;;;;;6101173;23;20168;-81
2023/09/14 06:05:39;;;;;;;0.50;0.50;;;19.30;72.80;;;;;;6124655;23;20136;-82
2023/09/14 06:08:05;;;;;;;0.55;0.50;;;19.30;72.70;;;;;;6099761;23;20515;-82
2023/09/14 06:10:31;;;;;;;0.98;0.60;;;19.30;72.60;;;;;;6100164;23;20239;-83
2023/09/14 06:12:57;;;;;;;0.88;0.55;;;19.30;72.30;;;;;;6150753;22;20128;-80
2023/09/14 06:15:23;;;;;;;0.60;0.60;;;19.20;72.20;;;;;;6124914;23;20148;-83
2023/09/14 06:17:49;;;;;;;0.70;0.70;;;19.20;72.00;;;;;;6125811;23;20139;-82
2023/09/14 06:20:15;;;;;;;0.68;0.50;;;19.30;71.40;;;;;;6125594;23;20602;-80
2023/09/14 06:22:41;;;;;;;0.57;0.57;;;19.20;71.60;;;;;;6125685;22;20194;-82
2023/09/14 06:25:07;;;;;;;0.85;0.60;;;19.20;71.30;;;;;;6151664;22;20171;-80
2023/09/14 06:27:33;;;;;;;0.75;0.60;;;19.20;71.20;;;;;;6126076;23;20456;-81
2023/09/14 06:29:58;;;;;;;0.52;0.52;;;19.20;70.90;;;;;;6125744;23;20188;-81
2023/09/14 06:32:25;;;;;;;0.63;0.52;;;19.20;70.40;;;;;;6151906;22;20523;-83
2023/09/14 06:34:51;;;;;;;0.95;0.50;;;19.10;70.40;;;;;;6151830;22;20140;-82
2023/09/14 06:37:18;;;;;;;0.57;0.50;;;19.10;70.20;;;;;;6125706;23;20255;-79
2023/09/14 06:39:44;;;;;;;1.10;0.50;;;19.10;70.10;;;;;;6125832;23;20147;-81
2023/09/14 06:42:09;;;;;;;0.40;0.40;;;19.00;70.10;;;;;;6125630;23;20479;-82
2023/09/14 06:44:36;;;;;;;0.80;0.70;;;19.00;70.00;;;;;;6125547;23;20225;-80
2023/09/14 06:47:02;;;;;;;0.43;0.40;;;18.90;70.00;;;;;;6151826;22;20135;-82
2023/09/14 06:49:28;;;;;;;0.63;0.60;;;18.90;69.80;;;;;;6126399;23;20150;-80
2023/09/14 06:51:54;;;;;;;0.50;0.50;;;19.00;69.50;;;;;;6152489;22;20136;-81
2023/09/14 06:54:20;;;;;;;0.50;0.50;;;19.00;69.40;;;;;;6154199;22;20210;-81
2023/09/14 06:56:50;;;;;;;0.73;0.52;;;19.00;69.10;;;;;;6125684;23;20201;-80
2023/09/14 06:59:16;;;;;;;0.73;0.45;;;19.00;68.90;;;;;;6203431;23;20769;-83
2023/09/14 07:01:42;;;;;;;0.40;0.40;;;19.00;68.70;;;;;;6126513;23;20132;-80
2023/09/14 07:04:11;;;;;;;0.55;0.55;;;19.00;68.60;;;;;;6151740;22;20194;-80
2023/09/14 07:06:40;;;;;;;1.40;0.80;;;19.00;69.00;;;;;;6151935;22;20127;-82
2023/09/14 07:09:09;;;;;;;1.63;1.17;;;19.00;68.90;;;;;;6176825;23;20188;-80
2023/09/14 07:11:35;;;;;;;1.90;1.10;;;19.10;68.80;;;;;;6053358;23;20246;-80
2023/09/14 07:14:02;;;;;;;2.65;2.13;;;19.20;68.20;;;;;;6129723;23;20513;-83
2023/09/14 07:16:30;;;;;;;5.82;3.22;;;19.20;68.00;;;;;;6075812;23;20147;-82
2023/09/14 07:18:59;;;;;;;2.55;2.10;;;19.20;67.80;;;;;;6202769;23;20205;-82
2023/09/14 07:21:32;;;;;;;2.10;1.88;;;19.20;67.60;;;;;;6176376;23;20946;-83
2023/09/14 07:23:59;;;;;;;4.20;3.90;;;19.30;67.40;;;;;;6200413;23;20286;-82
2023/09/14 07:26:25;;;;;;;2.70;2.30;;;19.20;67.40;;;;;;6125360;23;20158;-83
2023/09/14 07:28:51;;;;;;;2.63;2.17;;;19.20;67.60;;;;;;6100832;23;20868;-83
2023/09/14 07:31:17;;;;;;;2.78;2.10;;;19.20;67.40;;;;;;6125238;23;20128;-82
2023/09/14 07:33:45;;;;;;;1.80;1.70;;;19.00;67.30;;;;;;6100929;23;20140;-83
2023/09/14 07:36:11;;;;;;;1.63;1.52;;;19.10;67.20;;;;;;6125354;23;20132;-81
2023/09/14 07:38:37;;;;;;;1.65;1.55;;;19.10;67.20;;;;;;6125188;23;20148;-85
2023/09/14 07:41:03;;;;;;;1.80;1.50;;;19.10;67.20;;;;;;6125611;23;20513;-82
2023/09/14 07:43:28;;;;;;;1.40;1.30;;;19.10;66.90;;;;;;6125184;23;20175;-83
2023/09/14 07:45:55;;;;;;;2.17;1.38;;;19.10;66.90;;;;;;6151338;22;20214;-82
2023/09/14 07:48:22;;;;;;;2.78;1.20;;;19.20;66.80;;;;;;6101325;23;20151;-82
2023/09/14 07:50:47;;;;;;;1.10;1.00;;;19.20;66.30;;;;;;6126225;23;20139;-82
2023/09/14 07:53:13;;;;;;;2.70;1.23;;;19.20;66.00;;;;;;6151627;22;20278;-82
2023/09/14 07:55:40;;;;;;;1.02;0.93;;;19.20;66.10;;;;;;6125250;23;20227;-82
2023/09/14 07:58:06;;;;;;;2.13;0.98;;;19.20;65.90;;;;;;6200170;23;20151;-82
2023/09/14 08:00:33;;;;;;;1.70;1.23;;;19.20;66.10;;;;;;6148387;22;20132;-82
2023/09/14 08:03:00;;;;;;;1.35;0.98;;;19.20;66.00;;;;;;6148489;22;20139;-82
2023/09/14 08:05:26;;;;;;;2.22;1.10;;;19.20;65.80;;;;;;6123875;23;20139;-83
2023/09/14 08:07:53;;;;;;;2.45;1.00;;;19.20;65.70;;;;;;6150101;22;20227;-81
2023/09/14 08:10:18;;;;;;;1.50;1.08;;;19.30;65.80;;;;;;6150516;22;20136;-82
2023/09/14 08:12:46;;;;;;;2.72;0.90;;;19.20;65.60;;;;;;6124614;23;20154;-82
2023/09/14 08:15:12;;;;;;;0.85;0.85;;;19.20;65.90;;;;;;6176307;23;20163;-82
2023/09/14 08:17:37;;;;;;;1.05;0.95;;;19.20;66.00;;;;;;6124760;23;20449;-81
2023/09/14 08:20:03;;;;;;;0.90;0.80;;;19.20;66.00;;;;;;6100645;23;20578;-81
2023/09/14 08:22:29;;;;;;;0.95;0.85;;;19.10;66.10;;;;;;6100878;22;20136;-81
2023/09/14 08:24:58;;;;;;;1.00;0.90;;;19.10;66.00;;;;;;6125275;23;20182;-81
2023/09/14 08:27:24;;;;;;;2.75;0.82;;;19.10;66.60;;;;;;6149818;22;20162;-82
2023/09/14 08:29:50;;;;;;;0.88;0.80;;;19.10;66.50;;;;;;6150457;22;20131;-82
2023/09/14 08:32:16;;;;;;;2.78;0.90;;;19.10;66.10;;;;;;6127229;23;20155;-82
2023/09/14 08:34:42;;;;;;;1.17;1.05;;;19.20;66.00;;;;;;6127790;23;20197;-81
2023/09/14 08:37:09;;;;;;;1.65;0.70;;;19.20;65.80;;;;;;6126335;23;20154;-83
2023/09/14 08:39:35;;;;;;;0.63;0.63;;;19.10;65.80;;;;;;6126005;23;20138;-84
2023/09/14 08:42:00;;;;;;;1.17;0.70;;;19.10;65.90;;;;;;6125412;23;20264;-82
2023/09/14 08:44:26;;;;;;;1.65;0.60;;;19.10;65.80;;;;;;6126397;23;20635;-81
2023/09/14 08:46:53;;;;;;;0.90;0.80;;;19.10;65.80;;;;;;6126135;23;20548;-82
2023/09/14 08:49:20;;;;;;;0.75;0.75;;;19.10;65.80;;;;;;6151376;23;20131;-83
2023/09/14 08:51:46;;;;;;;1.30;0.90;;;19.10;65.80;;;;;;6125860;23;20167;-81
2023/09/14 08:54:12;;;;;;;0.73;0.70;;;19.10;65.80;;;;;;6101419;23;20146;-81
2023/09/14 08:56:43;;;;;;;0.88;0.52;;;19.10;65.80;;;;;;6126122;23;20162;-81
2023/09/14 08:59:11;;;;;;;0.90;0.70;;;19.20;65.60;;;;;;6202263;23;20151;-83
2023/09/14 09:01:36;;;;;;;1.13;0.90;;;19.20;65.60;;;;;;6151529;22;20132;-82
2023/09/14 09:04:03;;;;;;;0.70;0.60;;;19.10;65.60;;;;;;6126148;23;20749;-84
2023/09/14 09:06:29;;;;;;;1.55;0.63;;;19.20;65.60;;;;;;6101028;23;20155;-82
2023/09/14 09:08:55;;;;;;;1.73;0.60;;;19.00;66.50;;;;;;6124165;23;20733;-82
2023/09/14 09:11:21;;;;;;;0.82;0.60;;;19.10;65.60;;;;;;6101529;23;20136;-82
2023/09/14 09:13:48;;;;;;;1.20;0.80;;;19.10;65.70;;;;;;6125776;23;20140;-83
2023/09/14 09:16:14;;;;;;;1.17;0.80;;;19.20;65.60;;;;;;6125753;23;20124;-82
2023/09/14 09:19:03;;;;;;;1.05;0.65;;;19.10;65.60;;;;;;6125397;23;20132;-81
2023/09/14 09:21:30;;;;;;;0.57;0.57;;;19.20;65.50;;;;;;6125560;23;20140;-81
2023/09/14 09:23:56;;;;;;;0.73;0.70;;;19.20;65.50;;;;;;6119947;22;20673;-81
2023/09/14 09:26:24;;;;;;;0.95;0.77;;;19.20;65.40;;;;;;6120109;23;20209;-81
2023/09/14 09:28:49;;;;;;;0.55;0.52;;;19.10;65.40;;;;;;6095978;23;20453;-83
2023/09/14 09:31:16;;;;;;;0.52;0.52;;;19.20;65.20;;;;;;6096575;23;20147;-83
2023/09/14 09:33:44;;;;;;;0.95;0.50;;;19.20;65.30;;;;;;6120851;23;20674;-83
2023/09/14 09:36:17;;;;;;;0.52;0.52;;;19.20;65.30;;;;;;6121949;23;20132;-81
2023/09/14 09:38:45;;;;;;;1.55;0.70;;;19.20;66.10;;;;;;6096475;23;20147;-83
2023/09/14 09:41:11;;;;;;;0.60;0.50;;;19.20;65.20;;;;;;6120438;23;20125;-81
2023/09/14 09:43:39;;;;;;;0.90;0.65;;;19.20;65.30;;;;;;6120304;23;20201;-82
2023/09/14 09:46:13;;;;;;;3.85;0.80;;;19.20;65.40;;;;;;6120413;23;20132;-82
2023/09/14 09:48:39;;;;;;;1.10;0.70;;;19.20;65.50;;;;;;6121922;23;20140;-80
2023/09/14 09:51:05;;;;;;;0.57;0.50;;;19.20;65.30;;;;;;6119689;23;20145;-83
2023/09/14 09:53:31;;;;;;;0.60;0.60;;;19.20;65.20;;;;;;6120244;23;20537;-82
2023/09/14 09:55:57;;;;;;;0.65;0.65;;;19.20;65.10;;;;;;6120255;23;20226;-81
2023/09/14 09:58:32;;;;;;;0.57;0.57;;;19.30;65.20;;;;;;6121365;23;20536;-81
2023/09/14 10:00:58;;;;;;;1.15;0.60;;;19.30;65.30;;;;;;6095650;23;20143;-84
2023/09/14 10:03:24;;;;;;;0.60;0.60;;;19.20;65.20;;;;;;6119739;23;20480;-82
2023/09/14 10:05:50;;;;;;;0.73;0.65;;;19.20;65.10;;;;;;6095591;23;20212;-83
2023/09/14 10:08:18;;;;;;;1.00;0.77;;;19.30;65.10;;;;;;6120165;23;20132;-80
2023/09/14 10:10:53;;;;;;;0.50;0.50;;;19.20;65.10;;;;;;6121265;23;20133;-80
2023/09/14 10:13:23;;;;;;;0.85;0.60;;;19.30;64.90;;;;;;6120956;23;20132;-80
2023/09/14 10:15:53;;;;;;;0.68;0.60;;;19.30;65.00;;;;;;6119595;23;20163;-82
2023/09/14 10:18:20;;;;;;;0.70;0.65;;;19.30;65.10;;;;;;6121074;23;20132;-81
2023/09/14 10:20:46;;;;;;;1.05;0.73;;;19.30;65.00;;;;;;6119168;23;20140;-80
2023/09/14 10:23:12;;;;;;;0.75;0.70;;;19.20;64.60;;;;;;6119116;22;20206;-79
2023/09/14 10:25:37;;;;;;;1.00;0.70;;;19.30;64.90;;;;;;6120856;23;20574;-82
2023/09/14 10:28:04;;;;;;;0.60;0.60;;;19.20;64.80;;;;;;6120901;23;20147;-81
2023/09/14 10:30:30;;;;;;;0.80;0.70;;;19.30;64.80;;;;;;6095122;23;20152;-81
2023/09/14 10:32:57;;;;;;;1.40;0.60;;;19.30;64.70;;;;;;6120615;23;20928;-80
2023/09/14 10:35:23;;;;;;;0.50;0.50;;;19.30;64.60;;;;;;6120616;23;20132;-81
2023/09/14 10:37:50;;;;;;;0.60;0.60;;;19.30;64.60;;;;;;6120874;23;20165;-80
2023/09/14 10:40:17;;;;;;;0.50;0.50;;;19.30;64.70;;;;;;6122414;23;20148;-80
2023/09/14 10:42:42;;;;;;;0.68;0.60;;;19.30;64.60;;;;;;6121156;23;20139;-79
2023/09/14 10:45:10;;;;;;;1.08;0.60;;;19.30;64.70;;;;;;6119184;23;20160;-81
2023/09/14 10:47:37;;;;;;;0.90;0.70;;;19.30;64.60;;;;;;6120985;23;20136;-81
2023/09/14 10:50:04;;;;;;;0.70;0.70;;;19.20;64.50;;;;;;6121558;23;20137;-80
2023/09/14 10:52:30;;;;;;;1.25;0.68;;;19.30;64.40;;;;;;6120830;23;20282;-83
2023/09/14 10:54:56;;;;;;;1.08;0.98;;;19.30;64.30;;;;;;6119626;23;20279;-82
2023/09/14 10:57:24;;;;;;;0.60;0.60;;;19.30;64.30;;;;;;6095124;23;20211;-82
2023/09/14 10:59:52;;;;;;;0.90;0.60;;;19.40;64.30;;;;;;6095344;23;20468;-80
2023/09/14 11:02:56;;;;;;;0.60;0.60;;;19.30;64.20;;;;;;6120237;23;20528;-79
2023/09/14 11:05:25;;;;;;;0.80;0.70;;;19.40;64.10;;;;;;6120957;23;20650;-80
2023/09/14 11:07:58;;;;;;;0.70;0.70;;;19.40;64.10;;;;;;6196779;23;20176;-80
2023/09/14 11:10:24;;;;;;;0.70;0.70;;;19.40;64.00;;;;;;6221134;23;20217;-81
2023/09/14 11:12:49;;;;;;;0.80;0.80;;;19.40;64.10;;;;;;6097002;23;20152;-81
2023/09/14 11:15:21;;;;;;;0.70;0.70;;;19.30;64.00;;;;;;6121123;23;20204;-80
2023/09/14 11:17:55;;;;;;;0.95;0.77;;;19.30;64.00;;;;;;6120498;23;20207;-80
2023/09/14 11:20:39;;;;;;;0.60;0.60;;;19.30;64.30;;;;;;6120506;23;20128;-81
2023/09/14 11:23:07;;;;;;;0.70;0.70;;;19.30;63.80;;;;;;6132177;22;20190;-81
2023/09/14 11:25:36;;;;;;;0.75;0.75;;;19.40;63.90;;;;;;6125563;23;20403;-82
2023/09/14 11:28:02;;;;;;;0.98;0.80;;;19.40;63.80;;;;;;6126190;23;20231;-82
2023/09/14 11:30:28;;;;;;;0.63;0.63;;;19.30;63.60;;;;;;6126924;23;20162;-82
2023/09/14 11:32:54;;;;;;;1.45;0.70;;;19.40;63.60;;;;;;6125775;23;20552;-79
2023/09/14 11:35:42;;;;;;;0.80;0.75;;;19.40;63.50;;;;;;6101148;23;20154;-80
2023/09/14 11:38:16;;;;;;;0.80;0.77;;;19.40;63.70;;;;;;6124718;23;20583;-81
2023/09/14 11:40:43;;;;;;;1.65;0.80;;;19.40;63.60;;;;;;6151446;23;20174;-80
2023/09/14 11:43:21;;;;;;;0.63;0.63;;;19.30;63.60;;;;;;6202184;23;20148;-79
2023/09/14 11:45:49;;;;;;;0.70;0.70;;;19.40;63.50;;;;;;6103167;23;20142;-79
2023/09/14 11:48:15;;;;;;;0.90;0.70;;;19.40;63.50;;;;;;6150996;22;20178;-80
2023/09/14 11:50:42;;;;;;;0.70;0.70;;;19.40;63.40;;;;;;6150631;23;20154;-81
2023/09/14 11:53:09;;;;;;;0.85;0.70;;;19.50;63.20;;;;;;6151387;23;20650;-81
2023/09/14 11:55:34;;;;;;;0.88;0.70;;;19.40;63.20;;;;;;6152858;22;20139;-82
2023/09/14 11:58:01;;;;;;;1.38;0.70;;;19.40;62.90;;;;;;6125666;23;20139;-81
2023/09/14 12:00:35;;;;;;;0.70;0.70;;;19.40;62.90;;;;;;6153247;22;20139;-81
2023/09/14 12:03:05;;;;;;;0.73;0.70;;;19.30;62.70;;;;;;6127297;23;20135;-81
2023/09/14 12:05:32;;;;;;;0.70;0.70;;;19.40;62.60;;;;;;6180221;23;20187;-79
2023/09/14 12:08:06;;;;;;;0.60;0.60;;;19.50;62.60;;;;;;6079779;23;20152;-79
2023/09/14 12:10:35;;;;;;;0.95;0.85;;;19.40;62.30;;;;;;6132023;23;20173;-82
2023/09/14 12:13:13;;;;;;;1.05;0.90;;;19.40;62.10;;;;;;6159551;22;20132;-83
2023/09/14 12:15:51;;;;;;;;;;;;;;;;;;;;;
2023/09/14 12:18:21;;;;;;;1.20;0.80;;;19.40;62.00;;;;;;6104774;23;20190;-80
2023/09/14 12:20:54;;;;;;;0.70;0.70;;;19.40;61.80;;;;;;6206511;23;20162;-81
2023/09/14 12:23:21;;;;;;;2.00;0.70;;;19.50;61.70;;;;;;6066606;23;20207;-80
2023/09/14 12:25:47;;;;;;;1.00;0.90;;;19.40;61.50;;;;;;6166954;23;20222;-81
2023/09/14 12:28:13;;;;;;;0.93;0.73;;;19.50;61.60;;;;;;6116188;23;20153;-81
2023/09/14 12:30:38;;;;;;;0.75;0.70;;;19.50;61.50;;;;;;6091081;23;20141;-81
2023/09/14 12:33:05;;;;;;;0.57;0.57;;;19.50;61.50;;;;;;6115220;23;20137;-80
2023/09/14 12:35:31;;;;;;;0.73;0.70;;;19.50;61.30;;;;;;6242528;23;20150;-82
2023/09/14 12:38:00;;;;;;;0.80;0.80;;;19.60;61.20;;;;;;6217666;23;20540;-81
2023/09/14 12:40:27;;;;;;;0.55;0.55;;;19.50;61.10;;;;;;6243175;23;20160;-81
2023/09/14 12:42:53;;;;;;;1.10;0.75;;;19.60;60.90;;;;;;6217401;23;20229;-80
2023/09/14 12:45:19;;;;;;;0.60;0.60;;;19.60;60.90;;;;;;6242648;23;20241;-81
2023/09/14 12:47:46;;;;;;;1.48;0.70;;;19.60;60.70;;;;;;6217692;23;20149;-79